createdAt,value
2022-08-26T00:02:11.247Z,94.83
2022-08-26T00:04:38.771Z,92.00
2022-08-26T00:07:06.194Z,92.36
2022-08-26T00:09:38.889Z,90.54
2022-08-26T00:12:09.342Z,89.40
2022-08-26T00:14:40.140Z,88.92
2022-08-26T00:17:09.846Z,89.27
2022-08-26T00:19:37.905Z,89.23
2022-08-26T00:22:05.336Z,89.67
2022-08-26T00:24:32.895Z,88.17
2022-08-26T00:27:00.522Z,88.62
2022-08-26T00:29:28.546Z,87.62
2022-08-26T00:31:59.501Z,88.20
2022-08-26T00:34:27.059Z,89.69
2022-08-26T00:36:54.595Z,87.19
2022-08-26T00:39:22.273Z,85.48
2022-08-26T00:41:50.647Z,86.57
2022-08-26T00:44:19.677Z,85.45
2022-08-26T00:46:51.673Z,84.42
2022-08-26T00:49:29.604Z,83.47
2022-08-26T00:52:01.107Z,83.85
2022-08-26T00:54:33.335Z,84.73
2022-08-26T00:57:04.901Z,86.26
2022-08-26T00:59:36.426Z,84.82
2022-08-26T01:02:06.822Z,87.34
2022-08-26T01:04:55.867Z,89.74
2022-08-26T01:07:31.309Z,92.91
2022-08-26T01:10:06.645Z,91.42
2022-08-26T01:12:36.508Z,91.14
2022-08-26T01:15:10.235Z,90.80
2022-08-26T01:17:42.133Z,93.19
2022-08-26T01:20:23.986Z,92.92
2022-08-26T01:22:57.722Z,91.48
2022-08-26T01:25:30.157Z,92.82
2022-08-26T01:28:02.425Z,93.80
2022-08-26T01:30:31.439Z,94.04
2022-08-26T01:33:03.197Z,93.71
2022-08-26T01:35:30.886Z,92.47
2022-08-26T01:38:00.717Z,91.01
2022-08-26T01:40:35.792Z,88.37
2022-08-26T01:43:07.733Z,87.78
2022-08-26T01:45:40.447Z,85.46
2022-08-26T01:48:12.344Z,85.64
2022-08-26T01:50:42.849Z,87.46
2022-08-26T01:53:15.081Z,84.92
2022-08-26T01:55:46.612Z,86.00
2022-08-26T01:58:23.666Z,84.37
2022-08-26T02:00:52.092Z,82.86
2022-08-26T02:03:22.721Z,82.55
2022-08-26T02:05:57.579Z,81.42
2022-08-26T02:08:35.953Z,80.34
2022-08-26T02:11:03.930Z,80.61
2022-08-26T02:13:34.019Z,81.55
2022-08-26T02:16:03.952Z,83.09
2022-08-26T02:18:35.452Z,81.15
2022-08-26T02:21:06.737Z,81.29
2022-08-26T02:23:34.358Z,80.83
2022-08-26T02:26:12.028Z,80.86
2022-08-26T02:29:01.823Z,80.40
2022-08-26T02:31:29.598Z,79.01
2022-08-26T02:34:13.293Z,79.68
2022-08-26T02:36:42.743Z,80.04
2022-08-26T02:39:10.238Z,78.39
2022-08-26T02:41:44.914Z,77.35
2022-08-26T02:44:13.233Z,79.08
2022-08-26T02:46:46.764Z,79.47
2022-08-26T02:49:17.162Z,78.25
2022-08-26T02:51:49.563Z,78.31
2022-08-26T02:54:21.459Z,79.13
2022-08-26T02:56:48.961Z,78.52
2022-08-26T02:59:16.345Z,77.62
2022-08-26T03:01:45.282Z,78.62
2022-08-26T03:04:13.384Z,80.18
2022-08-26T03:06:42.654Z,82.19
2022-08-26T03:09:18.639Z,83.46
2022-08-26T03:11:47.212Z,82.89
2022-08-26T03:14:15.226Z,84.72
2022-08-26T03:16:43.352Z,83.32
2022-08-26T03:19:11.497Z,84.30
2022-08-26T03:21:39.387Z,85.15
2022-08-26T03:24:09.818Z,85.35
2022-08-26T03:26:37.476Z,83.80
2022-08-26T03:29:25.177Z,83.38
2022-08-26T03:31:53.609Z,83.62
2022-08-26T03:34:21.608Z,81.84
2022-08-26T03:36:50.231Z,80.83
2022-08-26T03:39:17.799Z,81.99
2022-08-26T03:41:45.362Z,82.28
2022-08-26T03:44:14.492Z,80.30
2022-08-26T03:46:42.087Z,81.24
2022-08-26T03:49:11.633Z,82.13
2022-08-26T03:51:39.409Z,84.11
2022-08-26T03:54:10.645Z,83.76
2022-08-26T03:56:38.581Z,84.05
2022-08-26T03:59:07.869Z,85.69
2022-08-26T04:01:36.187Z,86.80
2022-08-26T04:04:04.091Z,84.67
2022-08-26T04:06:38.918Z,85.36
2022-08-26T04:09:10.157Z,85.38
2022-08-26T04:11:39.685Z,85.48
2022-08-26T04:14:13.551Z,86.22
2022-08-26T04:16:42.646Z,85.95
2022-08-26T04:19:14.870Z,86.89
2022-08-26T04:21:42.932Z,87.84
2022-08-26T04:24:12.962Z,88.50
2022-08-26T04:26:43.644Z,87.75
2022-08-26T04:29:21.434Z,88.61
2022-08-26T04:31:49.377Z,85.09
2022-08-26T04:34:17.923Z,86.98
2022-08-26T04:36:45.343Z,85.71
2022-08-26T04:39:19.716Z,84.59
2022-08-26T04:41:50.273Z,86.63
2022-08-26T04:44:18.743Z,88.88
2022-08-26T04:46:46.263Z,89.76
2022-08-26T04:49:14.284Z,88.98
2022-08-26T04:51:41.801Z,88.70
2022-08-26T04:54:11.699Z,89.15
2022-08-26T04:56:41.512Z,91.75
2022-08-26T04:59:17.102Z,89.22
2022-08-26T05:01:51.616Z,88.22
2022-08-26T05:04:20.661Z,89.17
2022-08-26T05:06:50.666Z,87.26
2022-08-26T05:09:20.281Z,89.87
2022-08-26T05:11:52.154Z,89.28
2022-08-26T05:14:23.209Z,88.71
2022-08-26T05:16:51.717Z,87.93
2022-08-26T05:19:19.564Z,88.76
2022-08-26T05:21:48.563Z,88.04
2022-08-26T05:24:17.144Z,86.75
2022-08-26T05:26:46.477Z,87.01
2022-08-26T05:29:14.172Z,90.53
2022-08-26T05:31:41.937Z,90.31
2022-08-26T05:34:11.959Z,91.71
2022-08-26T05:36:40.188Z,94.90
2022-08-26T05:39:08.178Z,92.91
2022-08-26T05:41:41.757Z,91.89
2022-08-26T05:44:15.237Z,91.36
2022-08-26T05:46:44.899Z,89.16
2022-08-26T05:49:15.858Z,89.20
2022-08-26T05:51:47.929Z,89.03
2022-08-26T05:54:21.780Z,90.45
2022-08-26T05:56:51.372Z,90.47
2022-08-26T05:59:23.895Z,88.88
2022-08-26T06:01:53.419Z,89.33
2022-08-26T06:04:22.032Z,87.54
2022-08-26T06:06:52.128Z,88.65
2022-08-26T06:09:19.717Z,84.70
2022-08-26T06:11:47.331Z,84.63
2022-08-26T06:14:15.453Z,82.74
2022-08-26T06:16:45.058Z,82.40
2022-08-26T06:19:15.130Z,84.49
2022-08-26T06:21:46.366Z,82.87
2022-08-26T06:24:33.463Z,83.87
2022-08-26T06:27:04.757Z,82.39
2022-08-26T06:29:34.772Z,80.03
2022-08-26T06:32:04.702Z,79.76
2022-08-26T06:34:32.886Z,78.09
2022-08-26T06:37:03.283Z,79.37
2022-08-26T06:39:31.704Z,80.53
2022-08-26T06:42:02.539Z,79.05
2022-08-26T06:45:38.968Z,74.29
2022-08-26T06:52:51.269Z,60.89
2022-08-26T07:01:02.604Z,45.21
2022-08-26T07:04:47.856Z,48.17
2022-08-26T07:07:54.984Z,48.51
2022-08-26T07:24:20.750Z,41.70
2022-08-26T07:26:44.706Z,39.45
2022-08-26T07:29:33.794Z,40.83
2022-08-26T07:32:50.261Z,40.03
2022-08-26T07:42:55.449Z,40.39
2022-08-26T07:46:27.227Z,39.41
2022-08-26T07:49:45.185Z,34.93
2022-08-26T07:52:28.749Z,38.78
2022-08-26T07:56:07.466Z,39.09
2022-08-26T07:58:36.512Z,41.27
2022-08-26T08:01:05.230Z,41.37
2022-08-26T08:09:17.068Z,37.93
2022-08-26T08:11:49.588Z,36.73
2022-08-26T08:23:28.348Z,36.39
2022-08-26T08:26:14.095Z,36.10
2022-08-26T08:28:47.968Z,36.10
2022-08-26T08:34:18.156Z,35.75
2022-08-26T08:36:54.944Z,38.37
2022-08-26T08:40:13.506Z,37.47
2022-08-26T08:43:12.906Z,32.70
2022-08-26T08:45:52.920Z,33.75
2022-08-26T08:49:32.349Z,35.33
2022-08-26T08:52:22.376Z,37.32
2022-08-26T08:54:56.569Z,33.90
2022-08-26T08:57:56.176Z,34.31
2022-08-26T09:00:42.739Z,32.92
2022-08-26T09:03:29.421Z,30.87
2022-08-26T09:06:17.007Z,36.43
2022-08-26T09:08:50.693Z,31.67
2022-08-26T09:11:29.143Z,32.10
2022-08-26T09:14:00.369Z,34.31
2022-08-26T09:16:55.185Z,32.16
2022-08-26T09:23:43.489Z,31.16
2022-08-26T09:26:42.636Z,29.71
2022-08-26T09:29:26.381Z,32.75
2022-08-26T09:32:24.459Z,33.46
2022-08-26T09:35:02.582Z,37.03
2022-08-26T09:41:02.393Z,34.74
2022-08-26T09:43:33.009Z,34.54
2022-08-26T09:50:31.910Z,32.13
2022-08-26T09:53:28.553Z,35.83
2022-08-26T09:56:11.636Z,38.06
2022-08-26T09:58:42.239Z,35.00
2022-08-26T10:01:36.460Z,37.48
2022-08-26T10:04:16.579Z,39.14
2022-08-26T10:06:59.328Z,42.24
2022-08-26T10:09:28.937Z,40.91
2022-08-26T10:12:08.506Z,45.45
2022-08-26T10:17:38.424Z,41.75
2022-08-26T10:20:22.581Z,41.33
2022-08-26T10:23:47.330Z,45.39
2022-08-26T10:26:33.683Z,40.16
2022-08-26T10:29:07.856Z,41.44
2022-08-26T10:31:43.275Z,39.86
2022-08-26T10:34:12.327Z,38.94
2022-08-26T10:37:15.527Z,39.56
2022-08-26T10:39:57.303Z,41.34
2022-08-26T10:42:37.808Z,40.74
2022-08-26T10:45:25.276Z,40.49
2022-08-26T10:48:00.233Z,46.89
2022-08-26T10:54:39.601Z,41.27
2022-08-26T10:57:22.920Z,40.53
2022-08-26T11:00:27.570Z,39.01
2022-08-26T11:03:22.960Z,47.03
2022-08-26T11:06:20.192Z,47.46
2022-08-26T11:08:56.113Z,42.93
2022-08-26T11:11:42.077Z,45.60
2022-08-26T11:14:29.020Z,43.22
2022-08-26T11:17:01.166Z,43.78
2022-08-26T11:20:00.332Z,40.11
2022-08-26T11:22:39.766Z,44.74
2022-08-26T11:25:18.844Z,46.05
2022-08-26T11:27:50.841Z,39.95
2022-08-26T11:30:57.736Z,45.57
2022-08-26T11:34:01.381Z,42.29
2022-08-26T11:37:12.516Z,39.81
2022-08-26T11:39:57.043Z,41.30
2022-08-26T11:42:31.216Z,41.28
2022-08-26T11:45:02.491Z,40.85
2022-08-26T11:47:33.236Z,39.31
2022-08-26T11:50:10.084Z,39.67
2022-08-26T11:52:39.854Z,43.52
2022-08-26T11:55:14.556Z,45.87
2022-08-26T11:58:51.286Z,46.24
2022-08-26T12:01:40.145Z,52.92
2022-08-26T12:05:00.525Z,45.50
2022-08-26T12:07:36.109Z,46.51
2022-08-26T12:10:06.934Z,44.71
2022-08-26T12:12:42.600Z,46.85
2022-08-26T12:15:37.314Z,46.21
2022-08-26T12:18:29.501Z,49.41
2022-08-26T12:21:42.941Z,43.67
2022-08-26T12:24:10.640Z,50.52
2022-08-26T12:26:41.549Z,47.26
2022-08-26T12:29:26.945Z,45.37
2022-08-26T12:32:13.669Z,48.20
2022-08-26T12:35:12.118Z,45.42
2022-08-26T12:37:51.255Z,46.08
2022-08-26T12:40:50.572Z,44.11
2022-08-26T12:43:56.900Z,47.50
2022-08-26T12:46:29.303Z,49.57
2022-08-26T12:49:03.484Z,44.83
2022-08-26T12:51:42.007Z,46.79
2022-08-26T12:54:41.239Z,43.50
2022-08-26T12:57:13.468Z,45.02
2022-08-26T12:59:41.346Z,46.10
2022-08-26T13:02:11.598Z,46.06
2022-08-26T13:04:43.206Z,46.44
2022-08-26T13:07:24.383Z,46.57
2022-08-26T13:09:57.467Z,42.39
2022-08-26T13:12:33.731Z,45.12
2022-08-26T13:15:06.102Z,43.58
2022-08-26T13:17:36.124Z,43.77
2022-08-26T13:20:04.811Z,47.35
2022-08-26T13:22:32.868Z,46.19
2022-08-26T13:25:00.627Z,44.29
2022-08-26T13:27:33.224Z,48.99
2022-08-26T13:30:05.059Z,45.01
2022-08-26T13:32:37.751Z,45.17
2022-08-26T13:35:08.648Z,44.80
2022-08-26T13:37:45.374Z,44.69
2022-08-26T13:40:14.481Z,45.76
2022-08-26T13:42:49.825Z,46.35
2022-08-26T13:45:22.499Z,47.67
2022-08-26T13:47:50.485Z,44.81
2022-08-26T13:50:20.484Z,47.02
2022-08-26T13:52:48.243Z,44.02
2022-08-26T13:55:16.041Z,48.21
2022-08-26T13:57:43.876Z,45.03
2022-08-26T14:00:12.307Z,45.54
2022-08-26T14:02:46.021Z,43.57
2022-08-26T14:05:16.235Z,45.40
2022-08-26T14:07:47.953Z,45.55
2022-08-26T14:10:17.809Z,44.36
2022-08-26T14:12:47.884Z,44.97
2022-08-26T14:15:18.051Z,48.59
2022-08-26T14:17:49.572Z,45.47
2022-08-26T14:20:31.724Z,47.04
2022-08-26T14:23:17.710Z,45.99
2022-08-26T14:25:52.926Z,48.66
2022-08-26T14:28:23.320Z,45.27
2022-08-26T14:30:55.403Z,47.01
2022-08-26T14:33:32.843Z,48.23
2022-08-26T14:36:19.408Z,45.84
2022-08-26T14:38:50.960Z,47.28
2022-08-26T14:41:20.130Z,45.72
2022-08-26T14:44:02.006Z,47.89
2022-08-26T14:46:33.514Z,46.05
2022-08-26T14:49:05.204Z,47.60
2022-08-26T14:52:19.969Z,44.83
2022-08-26T14:54:47.635Z,45.25
2022-08-26T14:57:25.713Z,44.37
2022-08-26T14:59:53.409Z,44.44
2022-08-26T15:02:56.498Z,48.57
2022-08-26T15:05:27.415Z,45.08
2022-08-26T15:07:57.534Z,44.69
2022-08-26T15:10:44.951Z,44.97
2022-08-26T15:13:21.543Z,50.07
2022-08-26T15:15:53.366Z,51.89
2022-08-26T15:18:36.953Z,46.80
2022-08-26T15:21:28.682Z,51.57
2022-08-26T15:23:59.921Z,47.96
2022-08-26T15:26:29.938Z,51.03
2022-08-26T15:29:36.291Z,49.98
2022-08-26T15:32:05.168Z,50.15
2022-08-26T15:34:32.945Z,48.52
2022-08-26T15:37:03.098Z,49.94
2022-08-26T15:39:54.579Z,52.10
2022-08-26T15:42:57.508Z,55.04
2022-08-26T15:46:20.638Z,53.56
2022-08-26T15:49:40.899Z,60.09
2022-08-26T15:52:10.719Z,50.95
2022-08-26T15:55:54.447Z,50.28
2022-08-26T15:58:24.319Z,54.89
2022-08-26T16:00:56.834Z,54.36
2022-08-26T16:03:24.767Z,54.70
2022-08-26T16:05:56.636Z,57.25
2022-08-26T16:08:24.383Z,56.06
2022-08-26T16:10:53.165Z,59.12
2022-08-26T16:13:23.944Z,57.95
2022-08-26T16:15:54.132Z,60.27
2022-08-26T16:18:24.382Z,60.88
2022-08-26T16:21:06.573Z,61.26
2022-08-26T16:23:45.397Z,60.59
2022-08-26T16:26:19.620Z,58.74
2022-08-26T16:28:51.974Z,58.52
2022-08-26T16:31:21.400Z,58.89
2022-08-26T16:33:51.971Z,59.96
2022-08-26T16:36:25.861Z,60.37
2022-08-26T16:38:58.259Z,61.75
2022-08-26T16:41:29.156Z,61.99
2022-08-26T16:44:53.973Z,60.02
2022-08-26T16:47:23.240Z,62.62
2022-08-26T16:49:51.440Z,65.83
2022-08-26T16:52:21.521Z,65.18
2022-08-26T16:54:53.247Z,63.53
2022-08-26T16:57:28.202Z,60.94
2022-08-26T16:59:56.029Z,62.17
2022-08-26T17:02:29.328Z,65.20
2022-08-26T17:04:57.217Z,62.34
2022-08-26T17:07:27.295Z,61.05
2022-08-26T17:09:55.894Z,65.74
2022-08-26T17:12:28.453Z,60.07
2022-08-26T17:14:57.492Z,60.42
2022-08-26T17:17:29.768Z,60.84
2022-08-26T17:19:57.782Z,60.57
2022-08-26T17:22:31.515Z,60.41
2022-08-26T17:25:34.167Z,62.80
2022-08-26T17:28:01.998Z,64.50
2022-08-26T17:30:30.896Z,63.20
2022-08-26T17:33:10.796Z,64.32
2022-08-26T17:35:39.039Z,63.48
2022-08-26T17:38:07.281Z,63.54
2022-08-26T17:40:39.822Z,65.05
2022-08-26T17:43:12.508Z,64.83
2022-08-26T17:45:40.735Z,67.49
2022-08-26T17:48:10.811Z,65.63
2022-08-26T17:50:41.274Z,69.07
2022-08-26T17:53:12.732Z,69.34
2022-08-26T17:55:50.238Z,68.63
2022-08-26T17:58:20.398Z,68.03
2022-08-26T18:01:29.895Z,66.53
2022-08-26T18:04:00.423Z,68.32
2022-08-26T18:07:23.037Z,67.90
2022-08-26T18:09:50.947Z,67.25
2022-08-26T18:12:18.577Z,67.62
2022-08-26T18:15:27.518Z,68.25
2022-08-26T18:17:58.369Z,67.61
2022-08-26T18:20:26.136Z,68.27
2022-08-26T18:22:54.443Z,69.12
2022-08-26T18:25:22.346Z,69.12
2022-08-26T18:27:52.228Z,69.44
2022-08-26T18:30:21.581Z,70.85
2022-08-26T18:32:50.207Z,70.42
2022-08-26T18:35:25.489Z,71.82
2022-08-26T18:39:01.488Z,71.08
2022-08-26T18:41:32.516Z,70.75
2022-08-26T18:44:00.512Z,70.35
2022-08-26T18:46:36.513Z,70.62
2022-08-26T18:49:22.609Z,70.73
2022-08-26T18:51:55.407Z,68.70
2022-08-26T18:54:26.089Z,69.39
2022-08-26T18:57:28.445Z,70.27
2022-08-26T18:59:56.335Z,70.31
2022-08-26T19:02:24.598Z,73.42
2022-08-26T19:05:02.241Z,71.23
2022-08-26T19:07:30.336Z,69.09
2022-08-26T19:09:58.027Z,69.89
2022-08-26T19:16:18.704Z,70.09
2022-08-26T19:18:47.453Z,67.96
2022-08-26T19:21:40.636Z,67.20
2022-08-26T19:24:15.383Z,67.72
2022-08-26T19:26:45.705Z,67.27
2022-08-26T19:29:15.289Z,66.68
2022-08-26T19:31:47.932Z,69.70
2022-08-26T19:34:20.951Z,71.05
2022-08-26T19:36:49.557Z,70.22
2022-08-26T19:39:17.586Z,70.55
2022-08-26T19:42:52.236Z,72.13
2022-08-26T19:45:25.769Z,70.53
2022-08-26T19:47:54.015Z,74.07
2022-08-26T19:50:22.584Z,74.28
2022-08-26T19:52:50.229Z,72.13
2022-08-26T19:55:19.250Z,71.66
2022-08-26T19:57:47.055Z,72.87
2022-08-26T20:00:30.590Z,72.24
2022-08-26T20:03:29.194Z,71.43
2022-08-26T20:05:58.205Z,71.82
2022-08-26T20:08:26.043Z,73.08
2022-08-26T20:10:55.296Z,71.37
2022-08-26T20:13:28.469Z,74.98
2022-08-26T20:16:41.053Z,73.12
2022-08-26T20:19:28.716Z,72.51
2022-08-26T20:21:56.323Z,72.30
2022-08-26T20:24:26.445Z,72.21
2022-08-26T20:26:58.663Z,71.52
2022-08-26T20:30:41.536Z,71.81
2022-08-26T20:34:10.380Z,72.48
2022-08-26T20:36:39.698Z,72.78
2022-08-26T20:39:11.847Z,72.86
2022-08-26T20:41:44.534Z,72.34
2022-08-26T20:44:13.937Z,71.60
2022-08-26T20:46:41.755Z,71.71
2022-08-26T20:49:09.797Z,72.02
2022-08-26T20:51:38.015Z,70.43
2022-08-26T20:54:07.511Z,70.43
2022-08-26T20:56:35.935Z,69.73
2022-08-26T20:59:08.093Z,70.31
2022-08-26T21:01:42.175Z,70.07
2022-08-26T21:04:17.717Z,70.14
2022-08-26T21:06:48.993Z,71.05
2022-08-26T21:09:23.014Z,71.07
2022-08-26T21:11:57.133Z,71.11
2022-08-26T21:15:13.684Z,72.81
2022-08-26T21:17:44.310Z,73.57
2022-08-26T21:20:12.138Z,73.92
2022-08-26T21:22:39.798Z,71.88
2022-08-26T21:25:10.076Z,75.69
2022-08-26T21:27:38.518Z,78.08
2022-08-26T21:30:06.775Z,79.33
2022-08-26T21:32:34.531Z,80.38
2022-08-26T21:35:02.499Z,80.70
2022-08-26T21:37:30.168Z,80.26
2022-08-26T21:39:59.319Z,80.80
2022-08-26T21:42:27.036Z,81.26
2022-08-26T21:44:57.531Z,80.79
2022-08-26T21:47:25.238Z,82.67
2022-08-26T21:50:01.610Z,82.46
2022-08-26T21:52:29.545Z,82.35
2022-08-26T21:55:01.574Z,82.64
2022-08-26T21:57:31.714Z,83.14
2022-08-26T21:59:59.526Z,83.04
2022-08-26T22:02:29.593Z,84.72
2022-08-26T22:04:57.466Z,85.90
2022-08-26T22:07:25.085Z,83.56
2022-08-26T22:09:52.900Z,84.65
2022-08-26T22:12:20.601Z,84.99
2022-08-26T22:14:49.426Z,85.00
2022-08-26T22:17:47.819Z,84.26
2022-08-26T22:20:16.528Z,83.22
2022-08-26T22:22:45.246Z,85.29
2022-08-26T22:25:13.060Z,88.22
2022-08-26T22:27:43.016Z,92.03
2022-08-26T22:30:11.708Z,94.25
2022-08-26T22:32:40.462Z,92.30
2022-08-26T22:35:28.971Z,90.56
2022-08-26T22:37:57.263Z,86.17
2022-08-26T22:41:09.909Z,85.32
2022-08-26T22:43:38.712Z,83.74
2022-08-26T22:46:09.646Z,82.38
2022-08-26T22:48:40.495Z,81.07
2022-08-26T22:51:19.387Z,80.53
2022-08-26T22:53:47.642Z,81.31
2022-08-26T22:57:26.463Z,84.03
2022-08-26T22:59:58.601Z,88.32
2022-08-26T23:02:29.991Z,86.65
2022-08-26T23:04:57.741Z,86.66
2022-08-26T23:07:25.460Z,86.87
2022-08-26T23:09:58.500Z,89.94
2022-08-26T23:12:27.804Z,90.64
2022-08-26T23:14:59.089Z,91.05
2022-08-26T23:17:26.789Z,89.55
2022-08-26T23:19:55.363Z,89.67
2022-08-26T23:22:23.040Z,88.82
2022-08-26T23:24:51.024Z,92.27
2022-08-26T23:28:03.972Z,92.55
2022-08-26T23:30:33.898Z,91.43
2022-08-26T23:33:01.604Z,91.18
2022-08-26T23:35:30.066Z,89.57
2022-08-26T23:38:00.968Z,89.15
2022-08-26T23:40:34.782Z,88.77
2022-08-26T23:43:08.001Z,88.28
2022-08-26T23:45:36.011Z,86.57
2022-08-26T23:48:04.618Z,87.06
2022-08-26T23:50:51.047Z,86.15
2022-08-26T23:53:21.404Z,87.94
2022-08-26T23:55:53.154Z,90.24
2022-08-26T23:58:21.582Z,91.80
